sensor_id;sensor_type;location;lat;lon;timestamp;temperature;humidity
68648;SHT31;55632;51.962;16.116;2023-05-17T00:04:06;10.29;83.18
68648;SHT31;55632;51.962;16.116;2023-05-17T00:09:10;10.20;83.21
68648;SHT31;55632;51.962;16.116;2023-05-17T00:14:14;10.13;83.22
68648;SHT31;55632;51.962;16.116;2023-05-17T00:19:18;10.06;83.13
68648;SHT31;55632;51.962;16.116;2023-05-17T00:24:19;10.02;83.03
68648;SHT31;55632;51.962;16.116;2023-05-17T00:29:19;9.99;82.75
68648;SHT31;55632;51.962;16.116;2023-05-17T00:34:23;9.95;82.52
68648;SHT31;55632;51.962;16.116;2023-05-17T00:39:26;9.89;82.31
68648;SHT31;55632;51.962;16.116;2023-05-17T00:44:29;9.82;82.12
68648;SHT31;55632;51.962;16.116;2023-05-17T00:49:30;9.75;81.65
68648;SHT31;55632;51.962;16.116;2023-05-17T00:54:32;9.67;80.94
68648;SHT31;55632;51.962;16.116;2023-05-17T00:59:34;9.61;80.56
68648;SHT31;55632;51.962;16.116;2023-05-17T01:04:37;9.54;79.97
68648;SHT31;55632;51.962;16.116;2023-05-17T01:09:38;9.47;79.44
68648;SHT31;55632;51.962;16.116;2023-05-17T01:20:24;9.27;78.46
68648;SHT31;55632;51.962;16.116;2023-05-17T01:30:53;9.08;78.26
68648;SHT31;55632;51.962;16.116;2023-05-17T01:35:55;9.01;78.07
68648;SHT31;55632;51.962;16.116;2023-05-17T01:41:04;8.92;77.95
68648;SHT31;55632;51.962;16.116;2023-05-17T01:51:21;8.74;77.70
68648;SHT31;55632;51.962;16.116;2023-05-17T01:56:27;8.61;77.62
68648;SHT31;55632;51.962;16.116;2023-05-17T02:01:36;8.53;77.58
68648;SHT31;55632;51.962;16.116;2023-05-17T02:06:40;8.36;77.46
68648;SHT31;55632;51.962;16.116;2023-05-17T02:11:44;8.28;77.49
68648;SHT31;55632;51.962;16.116;2023-05-17T02:16:45;8.12;77.42
68648;SHT31;55632;51.962;16.116;2023-05-17T02:21:46;7.98;77.57
68648;SHT31;55632;51.962;16.116;2023-05-17T02:26:49;7.88;77.84
68648;SHT31;55632;51.962;16.116;2023-05-17T02:31:50;7.80;77.98
68648;SHT31;55632;51.962;16.116;2023-05-17T02:36:51;7.73;78.14
68648;SHT31;55632;51.962;16.116;2023-05-17T02:41:52;7.67;78.26
68648;SHT31;55632;51.962;16.116;2023-05-17T02:46:53;7.56;78.36
68648;SHT31;55632;51.962;16.116;2023-05-17T02:51:54;7.47;78.52
68648;SHT31;55632;51.962;16.116;2023-05-17T02:56:55;7.39;78.61
68648;SHT31;55632;51.962;16.116;2023-05-17T03:01:56;7.28;78.72
68648;SHT31;55632;51.962;16.116;2023-05-17T03:07:00;7.19;78.83
68648;SHT31;55632;51.962;16.116;2023-05-17T03:12:04;7.18;78.94
68648;SHT31;55632;51.962;16.116;2023-05-17T03:17:08;7.09;79.03
68648;SHT31;55632;51.962;16.116;2023-05-17T03:22:09;7.04;79.12
68648;SHT31;55632;51.962;16.116;2023-05-17T03:27:13;6.95;79.18
68648;SHT31;55632;51.962;16.116;2023-05-17T03:32:14;6.81;79.42
68648;SHT31;55632;51.962;16.116;2023-05-17T03:37:15;6.73;79.69
68648;SHT31;55632;51.962;16.116;2023-05-17T03:42:16;6.67;79.86
68648;SHT31;55632;51.962;16.116;2023-05-17T03:47:18;6.65;80.12
68648;SHT31;55632;51.962;16.116;2023-05-17T03:52:19;6.66;80.38
68648;SHT31;55632;51.962;16.116;2023-05-17T03:57:22;6.77;80.58
68648;SHT31;55632;51.962;16.116;2023-05-17T04:02:23;6.90;80.88
68648;SHT31;55632;51.962;16.116;2023-05-17T04:07:24;7.19;81.06
68648;SHT31;55632;51.962;16.116;2023-05-17T04:12:25;7.47;81.04
68648;SHT31;55632;51.962;16.116;2023-05-17T04:17:27;7.77;80.80
68648;SHT31;55632;51.962;16.116;2023-05-17T04:22:28;7.99;80.40
68648;SHT31;55632;51.962;16.116;2023-05-17T04:27:29;8.29;79.99
68648;SHT31;55632;51.962;16.116;2023-05-17T04:32:32;8.71;79.82
68648;SHT31;55632;51.962;16.116;2023-05-17T04:37:34;9.24;79.04
68648;SHT31;55632;51.962;16.116;2023-05-17T04:42:44;9.79;78.16
68648;SHT31;55632;51.962;16.116;2023-05-17T04:47:48;10.26;76.92
68648;SHT31;55632;51.962;16.116;2023-05-17T04:52:53;10.65;75.56
68648;SHT31;55632;51.962;16.116;2023-05-17T04:57:56;10.96;74.50
68648;SHT31;55632;51.962;16.116;2023-05-17T05:02:59;11.27;73.68
68648;SHT31;55632;51.962;16.116;2023-05-17T05:08:00;11.55;72.81
68648;SHT31;55632;51.962;16.116;2023-05-17T05:13:05;11.81;71.87
68648;SHT31;55632;51.962;16.116;2023-05-17T05:18:09;11.97;70.30
68648;SHT31;55632;51.962;16.116;2023-05-17T05:23:10;12.07;69.70
68648;SHT31;55632;51.962;16.116;2023-05-17T05:28:16;12.23;68.73
68648;SHT31;55632;51.962;16.116;2023-05-17T05:33:20;12.40;68.17
68648;SHT31;55632;51.962;16.116;2023-05-17T05:38:21;12.56;67.17
68648;SHT31;55632;51.962;16.116;2023-05-17T05:43:22;12.66;66.77
68648;SHT31;55632;51.962;16.116;2023-05-17T05:48:23;12.79;66.04
68648;SHT31;55632;51.962;16.116;2023-05-17T05:53:26;12.85;65.84
68648;SHT31;55632;51.962;16.116;2023-05-17T05:58:30;12.93;65.19
68648;SHT31;55632;51.962;16.116;2023-05-17T06:03:32;13.08;65.16
68648;SHT31;55632;51.962;16.116;2023-05-17T06:08:35;13.25;64.73
68648;SHT31;55632;51.962;16.116;2023-05-17T06:13:36;13.48;64.60
68648;SHT31;55632;51.962;16.116;2023-05-17T06:18:38;13.76;64.23
68648;SHT31;55632;51.962;16.116;2023-05-17T06:23:46;14.07;64.17
68648;SHT31;55632;51.962;16.116;2023-05-17T06:28:47;14.34;63.52
68648;SHT31;55632;51.962;16.116;2023-05-17T06:33:48;14.55;62.36
68648;SHT31;55632;51.962;16.116;2023-05-17T06:38:49;14.62;61.88
68648;SHT31;55632;51.962;16.116;2023-05-17T06:43:55;14.68;61.68
68648;SHT31;55632;51.962;16.116;2023-05-17T06:48:55;14.70;61.42
68648;SHT31;55632;51.962;16.116;2023-05-17T06:53:56;14.75;60.79
68648;SHT31;55632;51.962;16.116;2023-05-17T06:58:59;14.75;60.36
68648;SHT31;55632;51.962;16.116;2023-05-17T07:04:00;14.70;60.16
68648;SHT31;55632;51.962;16.116;2023-05-17T07:09:01;14.72;59.87
68648;SHT31;55632;51.962;16.116;2023-05-17T07:14:02;14.63;59.75
68648;SHT31;55632;51.962;16.116;2023-05-17T07:19:03;14.55;60.06
68648;SHT31;55632;51.962;16.116;2023-05-17T07:24:04;14.61;60.44
68648;SHT31;55632;51.962;16.116;2023-05-17T07:29:05;14.66;60.66
68648;SHT31;55632;51.962;16.116;2023-05-17T07:34:06;14.59;60.30
68648;SHT31;55632;51.962;16.116;2023-05-17T07:39:06;14.55;60.42
68648;SHT31;55632;51.962;16.116;2023-05-17T07:44:08;14.61;60.83
68648;SHT31;55632;51.962;16.116;2023-05-17T07:49:12;14.63;60.70
68648;SHT31;55632;51.962;16.116;2023-05-17T07:54:28;14.58;60.44
68648;SHT31;55632;51.962;16.116;2023-05-17T07:59:29;14.62;61.00
68648;SHT31;55632;51.962;16.116;2023-05-17T08:04:32;14.80;61.10
68648;SHT31;55632;51.962;16.116;2023-05-17T08:09:35;14.96;61.10
68648;SHT31;55632;51.962;16.116;2023-05-17T08:14:36;15.04;60.87
68648;SHT31;55632;51.962;16.116;2023-05-17T08:19:37;15.14;60.85
68648;SHT31;55632;51.962;16.116;2023-05-17T08:24:40;15.21;60.81
68648;SHT31;55632;51.962;16.116;2023-05-17T08:29:44;15.21;60.62
68648;SHT31;55632;51.962;16.116;2023-05-17T08:34:45;15.18;60.65
68648;SHT31;55632;51.962;16.116;2023-05-17T08:39:46;15.24;60.22
68648;SHT31;55632;51.962;16.116;2023-05-17T08:44:55;15.20;60.33
68648;SHT31;55632;51.962;16.116;2023-05-17T08:49:55;15.07;60.34
68648;SHT31;55632;51.962;16.116;2023-05-17T08:55:06;14.91;60.79
68648;SHT31;55632;51.962;16.116;2023-05-17T09:00:08;14.81;61.15
68648;SHT31;55632;51.962;16.116;2023-05-17T09:05:18;14.75;61.09
68648;SHT31;55632;51.962;16.116;2023-05-17T09:10:20;14.56;61.10
68648;SHT31;55632;51.962;16.116;2023-05-17T09:15:23;14.52;61.29
68648;SHT31;55632;51.962;16.116;2023-05-17T09:20:29;14.62;61.09
68648;SHT31;55632;51.962;16.116;2023-05-17T09:25:46;14.65;60.81
68648;SHT31;55632;51.962;16.116;2023-05-17T09:30:50;14.58;61.20
68648;SHT31;55632;51.962;16.116;2023-05-17T09:35:51;14.46;61.31
68648;SHT31;55632;51.962;16.116;2023-05-17T09:40:55;14.48;61.90
68648;SHT31;55632;51.962;16.116;2023-05-17T09:45:56;14.55;61.53
68648;SHT31;55632;51.962;16.116;2023-05-17T09:51:02;14.48;61.22
68648;SHT31;55632;51.962;16.116;2023-05-17T09:56:12;14.29;61.19
68648;SHT31;55632;51.962;16.116;2023-05-17T10:01:15;14.20;61.31
68648;SHT31;55632;51.962;16.116;2023-05-17T10:06:21;14.25;61.31
68648;SHT31;55632;51.962;16.116;2023-05-17T10:11:27;14.44;60.94
68648;SHT31;55632;51.962;16.116;2023-05-17T10:16:37;14.48;59.59
68648;SHT31;55632;51.962;16.116;2023-05-17T10:21:42;14.39;59.93
68648;SHT31;55632;51.962;16.116;2023-05-17T10:26:49;14.48;60.03
68648;SHT31;55632;51.962;16.116;2023-05-17T10:31:54;14.63;59.36
68648;SHT31;55632;51.962;16.116;2023-05-17T10:36:58;14.77;59.06
68648;SHT31;55632;51.962;16.116;2023-05-17T10:42:06;14.96;58.86
68648;SHT31;55632;51.962;16.116;2023-05-17T10:47:11;15.08;57.71
68648;SHT31;55632;51.962;16.116;2023-05-17T10:52:18;15.31;56.76
68648;SHT31;55632;51.962;16.116;2023-05-17T10:57:42;15.42;54.24
68648;SHT31;55632;51.962;16.116;2023-05-17T11:02:43;15.42;54.04
68648;SHT31;55632;51.962;16.116;2023-05-17T11:07:44;15.39;53.40
68648;SHT31;55632;51.962;16.116;2023-05-17T11:12:46;15.48;53.65
68648;SHT31;55632;51.962;16.116;2023-05-17T11:17:53;15.71;52.93
68648;SHT31;55632;51.962;16.116;2023-05-17T11:22:57;15.73;51.67
68648;SHT31;55632;51.962;16.116;2023-05-17T11:27:58;15.84;51.13
68648;SHT31;55632;51.962;16.116;2023-05-17T11:33:01;16.05;49.89
68648;SHT31;55632;51.962;16.116;2023-05-17T11:38:17;16.15;49.54
68648;SHT31;55632;51.962;16.116;2023-05-17T11:43:20;16.08;50.36
68648;SHT31;55632;51.962;16.116;2023-05-17T11:48:24;16.05;50.55
68648;SHT31;55632;51.962;16.116;2023-05-17T11:53:25;16.12;49.77
68648;SHT31;55632;51.962;16.116;2023-05-17T11:58:27;16.22;48.97
68648;SHT31;55632;51.962;16.116;2023-05-17T12:03:32;16.35;48.54
68648;SHT31;55632;51.962;16.116;2023-05-17T12:08:38;16.41;47.71
68648;SHT31;55632;51.962;16.116;2023-05-17T12:13:40;16.32;47.43
68648;SHT31;55632;51.962;16.116;2023-05-17T12:18:43;16.38;47.51
68648;SHT31;55632;51.962;16.116;2023-05-17T12:23:47;16.49;46.64
68648;SHT31;55632;51.962;16.116;2023-05-17T12:29:18;16.33;45.97
68648;SHT31;55632;51.962;16.116;2023-05-17T12:34:26;16.32;45.64
68648;SHT31;55632;51.962;16.116;2023-05-17T12:39:41;16.38;45.55
68648;SHT31;55632;51.962;16.116;2023-05-17T12:44:43;16.52;42.72
68648;SHT31;55632;51.962;16.116;2023-05-17T12:50:02;16.64;43.17
68648;SHT31;55632;51.962;16.116;2023-05-17T12:55:24;16.62;43.44
68648;SHT31;55632;51.962;16.116;2023-05-17T13:00:26;16.62;43.39
68648;SHT31;55632;51.962;16.116;2023-05-17T13:05:36;16.52;43.37
68648;SHT31;55632;51.962;16.116;2023-05-17T13:10:39;16.46;44.04
68648;SHT31;55632;51.962;16.116;2023-05-17T13:15:40;16.53;44.00
68648;SHT31;55632;51.962;16.116;2023-05-17T13:20:47;16.57;43.29
68648;SHT31;55632;51.962;16.116;2023-05-17T13:25:50;16.60;44.29
68648;SHT31;55632;51.962;16.116;2023-05-17T13:30:51;16.66;44.15
68648;SHT31;55632;51.962;16.116;2023-05-17T13:35:52;16.56;44.20
68648;SHT31;55632;51.962;16.116;2023-05-17T13:40:53;16.45;44.46
68648;SHT31;55632;51.962;16.116;2023-05-17T13:45:59;16.42;44.92
68648;SHT31;55632;51.962;16.116;2023-05-17T13:51:00;16.24;44.80
68648;SHT31;55632;51.962;16.116;2023-05-17T13:56:01;16.29;45.14
68648;SHT31;55632;51.962;16.116;2023-05-17T14:01:03;16.35;44.91
68648;SHT31;55632;51.962;16.116;2023-05-17T14:06:07;16.30;44.70
68648;SHT31;55632;51.962;16.116;2023-05-17T14:11:11;16.24;44.11
68648;SHT31;55632;51.962;16.116;2023-05-17T14:16:18;16.18;43.99
68648;SHT31;55632;51.962;16.116;2023-05-17T14:21:25;16.25;43.13
68648;SHT31;55632;51.962;16.116;2023-05-17T14:26:29;16.24;43.44
68648;SHT31;55632;51.962;16.116;2023-05-17T14:31:30;16.15;43.71
68648;SHT31;55632;51.962;16.116;2023-05-17T14:36:38;16.22;43.42
68648;SHT31;55632;51.962;16.116;2023-05-17T14:41:50;16.25;42.80
68648;SHT31;55632;51.962;16.116;2023-05-17T14:46:57;16.26;43.72
68648;SHT31;55632;51.962;16.116;2023-05-17T14:52:03;16.38;44.04
68648;SHT31;55632;51.962;16.116;2023-05-17T14:57:06;16.45;43.98
68648;SHT31;55632;51.962;16.116;2023-05-17T15:02:17;16.30;42.92
68648;SHT31;55632;51.962;16.116;2023-05-17T15:07:34;16.18;43.25
68648;SHT31;55632;51.962;16.116;2023-05-17T15:12:35;16.11;43.73
68648;SHT31;55632;51.962;16.116;2023-05-17T15:17:42;16.07;43.21
68648;SHT31;55632;51.962;16.116;2023-05-17T15:22:42;16.10;42.75
68648;SHT31;55632;51.962;16.116;2023-05-17T15:27:54;16.00;43.23
68648;SHT31;55632;51.962;16.116;2023-05-17T15:32:59;15.86;43.62
68648;SHT31;55632;51.962;16.116;2023-05-17T15:38:04;15.80;43.08
68648;SHT31;55632;51.962;16.116;2023-05-17T15:43:20;15.77;43.23
68648;SHT31;55632;51.962;16.116;2023-05-17T15:48:30;15.60;43.10
68648;SHT31;55632;51.962;16.116;2023-05-17T15:54:04;15.63;44.14
68648;SHT31;55632;51.962;16.116;2023-05-17T15:59:08;15.65;43.85
68648;SHT31;55632;51.962;16.116;2023-05-17T16:04:11;15.60;44.22
68648;SHT31;55632;51.962;16.116;2023-05-17T16:09:28;15.53;44.23
68648;SHT31;55632;51.962;16.116;2023-05-17T16:14:32;15.42;44.78
68648;SHT31;55632;51.962;16.116;2023-05-17T16:19:36;15.36;45.56
68648;SHT31;55632;51.962;16.116;2023-05-17T16:24:39;15.34;46.39
68648;SHT31;55632;51.962;16.116;2023-05-17T16:29:40;15.31;46.33
68648;SHT31;55632;51.962;16.116;2023-05-17T16:34:41;15.27;46.44
68648;SHT31;55632;51.962;16.116;2023-05-17T16:39:41;15.15;46.11
68648;SHT31;55632;51.962;16.116;2023-05-17T16:44:45;15.06;46.26
68648;SHT31;55632;51.962;16.116;2023-05-17T16:49:46;14.98;45.87
68648;SHT31;55632;51.962;16.116;2023-05-17T16:54:47;14.91;46.35
68648;SHT31;55632;51.962;16.116;2023-05-17T16:59:48;14.83;46.65
68648;SHT31;55632;51.962;16.116;2023-05-17T17:04:49;14.79;46.94
68648;SHT31;55632;51.962;16.116;2023-05-17T17:09:50;14.75;47.33
68648;SHT31;55632;51.962;16.116;2023-05-17T17:14:52;14.69;47.75
68648;SHT31;55632;51.962;16.116;2023-05-17T17:19:55;14.61;48.19
68648;SHT31;55632;51.962;16.116;2023-05-17T17:24:56;14.58;48.57
68648;SHT31;55632;51.962;16.116;2023-05-17T17:29:57;14.49;48.91
68648;SHT31;55632;51.962;16.116;2023-05-17T17:34:58;14.45;48.89
68648;SHT31;55632;51.962;16.116;2023-05-17T17:40:07;14.32;48.90
68648;SHT31;55632;51.962;16.116;2023-05-17T17:45:11;14.24;49.20
68648;SHT31;55632;51.962;16.116;2023-05-17T17:50:12;14.18;49.76
68648;SHT31;55632;51.962;16.116;2023-05-17T17:55:13;14.10;50.21
68648;SHT31;55632;51.962;16.116;2023-05-17T18:00:15;14.01;50.49
68648;SHT31;55632;51.962;16.116;2023-05-17T18:05:16;13.91;50.74
68648;SHT31;55632;51.962;16.116;2023-05-17T18:10:18;13.77;50.32
68648;SHT31;55632;51.962;16.116;2023-05-17T18:15:19;13.66;50.65
68648;SHT31;55632;51.962;16.116;2023-05-17T18:20:21;13.49;51.23
68648;SHT31;55632;51.962;16.116;2023-05-17T18:25:24;13.41;51.77
68648;SHT31;55632;51.962;16.116;2023-05-17T18:30:25;13.28;52.27
68648;SHT31;55632;51.962;16.116;2023-05-17T18:35:30;13.21;52.80
68648;SHT31;55632;51.962;16.116;2023-05-17T18:40:32;13.10;53.23
68648;SHT31;55632;51.962;16.116;2023-05-17T18:45:36;12.97;53.52
68648;SHT31;55632;51.962;16.116;2023-05-17T18:50:40;12.85;53.93
68648;SHT31;55632;51.962;16.116;2023-05-17T18:55:40;12.75;54.35
68648;SHT31;55632;51.962;16.116;2023-05-17T19:00:41;12.62;54.73
68648;SHT31;55632;51.962;16.116;2023-05-17T19:05:43;12.52;55.09
68648;SHT31;55632;51.962;16.116;2023-05-17T19:10:44;12.44;55.36
68648;SHT31;55632;51.962;16.116;2023-05-17T19:15:48;12.37;55.88
68648;SHT31;55632;51.962;16.116;2023-05-17T19:20:51;12.30;56.49
68648;SHT31;55632;51.962;16.116;2023-05-17T19:25:58;12.14;56.87
68648;SHT31;55632;51.962;16.116;2023-05-17T19:30:59;12.02;57.27
68648;SHT31;55632;51.962;16.116;2023-05-17T19:36:02;11.92;57.67
68648;SHT31;55632;51.962;16.116;2023-05-17T19:41:03;11.79;58.03
68648;SHT31;55632;51.962;16.116;2023-05-17T19:46:07;11.62;58.47
68648;SHT31;55632;51.962;16.116;2023-05-17T19:51:11;11.55;58.75
68648;SHT31;55632;51.962;16.116;2023-05-17T19:56:21;11.45;59.24
68648;SHT31;55632;51.962;16.116;2023-05-17T20:01:26;11.31;59.48
68648;SHT31;55632;51.962;16.116;2023-05-17T20:06:28;11.19;60.14
68648;SHT31;55632;51.962;16.116;2023-05-17T20:11:30;11.03;60.72
68648;SHT31;55632;51.962;16.116;2023-05-17T20:16:34;10.95;61.47
68648;SHT31;55632;51.962;16.116;2023-05-17T20:21:37;10.82;61.93
68648;SHT31;55632;51.962;16.116;2023-05-17T20:26:45;10.78;62.60
68648;SHT31;55632;51.962;16.116;2023-05-17T20:31:49;10.78;62.64
68648;SHT31;55632;51.962;16.116;2023-05-17T20:36:54;10.72;62.84
68648;SHT31;55632;51.962;16.116;2023-05-17T20:41:57;10.64;62.81
68648;SHT31;55632;51.962;16.116;2023-05-17T20:46:58;10.58;62.90
68648;SHT31;55632;51.962;16.116;2023-05-17T20:52:02;10.53;63.01
68648;SHT31;55632;51.962;16.116;2023-05-17T20:57:04;10.48;63.14
68648;SHT31;55632;51.962;16.116;2023-05-17T21:02:06;10.43;63.29
68648;SHT31;55632;51.962;16.116;2023-05-17T21:07:08;10.34;63.44
68648;SHT31;55632;51.962;16.116;2023-05-17T21:12:10;10.26;63.67
68648;SHT31;55632;51.962;16.116;2023-05-17T21:17:11;10.20;63.90
68648;SHT31;55632;51.962;16.116;2023-05-17T21:22:11;10.13;64.04
68648;SHT31;55632;51.962;16.116;2023-05-17T21:27:12;10.08;64.28
68648;SHT31;55632;51.962;16.116;2023-05-17T21:32:13;10.01;64.58
68648;SHT31;55632;51.962;16.116;2023-05-17T21:37:16;9.89;64.82
68648;SHT31;55632;51.962;16.116;2023-05-17T21:42:17;9.85;64.96
68648;SHT31;55632;51.962;16.116;2023-05-17T21:47:18;9.75;65.10
68648;SHT31;55632;51.962;16.116;2023-05-17T21:52:19;9.65;65.32
68648;SHT31;55632;51.962;16.116;2023-05-17T21:57:19;9.52;65.42
68648;SHT31;55632;51.962;16.116;2023-05-17T22:02:20;9.40;65.64
68648;SHT31;55632;51.962;16.116;2023-05-17T22:07:21;9.33;65.93
68648;SHT31;55632;51.962;16.116;2023-05-17T22:12:23;9.22;66.23
68648;SHT31;55632;51.962;16.116;2023-05-17T22:17:27;9.18;66.45
68648;SHT31;55632;51.962;16.116;2023-05-17T22:22:30;9.11;66.55
68648;SHT31;55632;51.962;16.116;2023-05-17T22:27:33;9.06;66.69
68648;SHT31;55632;51.962;16.116;2023-05-17T22:32:35;9.04;66.82
68648;SHT31;55632;51.962;16.116;2023-05-17T22:37:39;8.98;66.76
68648;SHT31;55632;51.962;16.116;2023-05-17T22:42:42;8.91;66.87
68648;SHT31;55632;51.962;16.116;2023-05-17T22:47:44;8.87;67.03
68648;SHT31;55632;51.962;16.116;2023-05-17T22:52:46;8.84;67.10
68648;SHT31;55632;51.962;16.116;2023-05-17T22:57:51;8.78;67.13
68648;SHT31;55632;51.962;16.116;2023-05-17T23:02:51;8.77;67.14
68648;SHT31;55632;51.962;16.116;2023-05-17T23:07:52;8.71;67.17
68648;SHT31;55632;51.962;16.116;2023-05-17T23:12:53;8.70;67.26
68648;SHT31;55632;51.962;16.116;2023-05-17T23:17:57;8.60;67.26
68648;SHT31;55632;51.962;16.116;2023-05-17T23:22:59;8.54;67.38
68648;SHT31;55632;51.962;16.116;2023-05-17T23:28:04;8.47;67.46
68648;SHT31;55632;51.962;16.116;2023-05-17T23:33:09;8.43;67.72
68648;SHT31;55632;51.962;16.116;2023-05-17T23:38:10;8.36;68.01
68648;SHT31;55632;51.962;16.116;2023-05-17T23:43:11;8.24;68.27
68648;SHT31;55632;51.962;16.116;2023-05-17T23:48:12;8.15;68.59
68648;SHT31;55632;51.962;16.116;2023-05-17T23:53:15;8.08;68.86
68648;SHT31;55632;51.962;16.116;2023-05-17T23:58:18;8.02;69.22
